Weather observations for the past three days for
Harrison, Boone County Airport
Imperial (Metric)
Date Time (cdt) Wind (mph) Vis. (mi.) Weather Sky Cond. Temperature (ºF) Relative Humidity Wind Chill (°F) Heat Index (°F) Pressure Precipitation (in)
Air Dwpt 6 hour altimeter (in) sea level (mb) 1 hr 3 hr 6 hr
Max. Min.
31 10:53 S 7 10.00 A Few Clouds FEW085 91.9 66.9 44% 95 30.12 1018.1
31 09:53 S 7 10.00 Fair CLR 88 66.9 50% 91 30.11 1017.9
31 08:53 SE 5 10.00 Fair CLR 82 64.9 56% 84 30.11 1017.8
31 07:53 E 5 10.00 Fair CLR 75.9 64 67% 78 30.1 1017.4
31 06:53 Calm 10.00 Fair CLR 72 63 78.1 72 73% 30.07 1016.3
31 05:53 SE 3 10.00 Fair CLR 75 63 66% 77 30.06 1015.9
31 04:53 SE 5 10.00 Fair CLR 75.9 62.1 62% 78 30.05 1015.5
31 03:53 S 7 10.00 Fair CLR 75.9 61 60% 78 30.04 1015.4
31 02:53 SE 7 10.00 Fair CLR 78.1 60.1 54% 79 30.04 1015.2
31 01:53 SE 6 10.00 Fair CLR 77 61 58% 79 30.05 1015.4
30 23:53 SE 8 10.00 Fair CLR 75.9 62.1 62% 78 30.05 1015.5
30 22:53 S 7 10.00 Fair CLR 75.9 62.1 62% 78 30.04 1015.3
30 21:53 SE 8 10.00 Fair CLR 80.1 63 56% 81 30.04 1015.2
30 20:53 SE 7 10.00 Fair CLR 80.1 64 58% 82 30.02 1015.0
30 19:53 S 8 10.00 Fair CLR 86 63 46% 87 30.01 1014.5
30 18:53 S 7 10.00 Fair CLR 90 62.1 96.1 90 39% 90 30.01 1014.5
30 17:53 S 9 10.00 Fair CLR 93 61 34% 93 30.01 1014.5
30 16:53 S 9 10.00 Fair CLR 95 62.1 34% 96 30.01 1014.4
30 15:53 SE 10 G 18 10.00 A Few Clouds FEW080 96.1 61 31% 97 30.02 1014.7
30 14:53 E 6 10.00 Fair CLR 96.1 62.1 32% 97 30.03 1015.1
30 13:53 SE 8 10.00 Fair CLR 93.9 63 36% 95 30.05 1015.6
30 12:53 SE 10 10.00 Fair CLR 93 62.1 93 68 36% 94 30.06 1016.2
30 11:53 S 7 10.00 Fair CLR 91.9 63 38% 93 30.08 1016.8
30 10:53 S 10 10.00 Fair CLR 89.1 63 42% 90 30.09 1017.1
30 09:53 S 10 10.00 Fair CLR 86 62.1 45% 87 30.08 1016.9
30 08:53 SE 7 10.00 Fair CLR 79 62.1 56% 80 30.08 1016.9
30 07:53 SE 6 10.00 Fair CLR 72 60.1 66% 30.09 1017.3
30 06:53 SE 6 10.00 Fair CLR 68 57.9 73 66.9 70% 30.07 1016.7
30 05:53 SE 6 10.00 Fair CLR 66.9 59 76% 30.06 1016.3
30 04:53 SE 3 10.00 Fair CLR 68 59 73% 30.07 1016.4
30 03:53 SE 3 10.00 Fair CLR 69.1 59 70% 30.06 1016.3
30 02:53 SE 8 10.00 Fair CLR 71.1 60.1 68% 30.06 1016.2
30 01:53 SE 9 10.00 Fair CLR 73 60.1 64% 30.07 1016.4
30 00:53 SE 9 10.00 Fair CLR 73 60.1 88 72 64% 30.07 1016.4
29 23:53 S 6 10.00 Fair CLR 73 61 66% 30.07 1016.6
29 22:53 SE 6 10.00 Fair CLR 73.9 62.1 67% 30.07 1016.7
29 21:53 S 7 10.00 Fair CLR 78.1 63 60% 80 30.07 1016.4
29 20:53 S 8 10.00 Fair CLR 79 63 58% 81 30.06 1016.3
29 19:53 SE 6 10.00 Fair CLR 82.9 59 44% 83 30.04 1015.8
29 18:53 SE 8 10.00 Fair CLR 89.1 57 93 88 34% 88 30.05 1015.9
29 17:53 SE 12 10.00 Fair CLR 91.9 59 33% 91 30.04 1015.8
29 16:53 SE 7 10.00 Fair CLR 91.9 60.1 34% 92 30.05 1016.0
29 15:53 Calm 10.00 Fair CLR 91.9 60.1 34% 92 30.06 1016.3
29 14:53 Vrbl 7 10.00 Fair CLR 91 59 34% 90 30.08 1017.2
29 13:53 S 8 10.00 Fair CLR 91 60.1 35% 91 30.11 1017.9
29 12:53 SE 9 10.00 Fair CLR 88 60.1 89.1 63 39% 88 30.13 1018.9
29 11:53 SE 9 10.00 Fair CLR 86 63 46% 87 30.16 1019.6
29 10:53 S 9 10.00 Fair CLR 82.9 61 48% 83 30.16 1019.8
29 09:53 SE 10 10.00 Fair CLR 79 60.1 52% 80 30.17 1020.0
29 08:53 SE 7 10.00 Fair CLR 73 61 66% 30.16 1019.9
29 07:53 SE 5 10.00 Fair CLR 66.9 61 81% 30.16 1020.0
29 06:53 SE 3 10.00 Fair CLR 63 59 69.1 63 87% 30.15 1019.5
29 05:53 SE 3 10.00 Fair CLR 64 59 84% 30.14 1019.1
29 04:53 S 3 10.00 Fair CLR 63 59 87% 30.13 1018.9
29 02:53 SE 5 10.00 Fair CLR 64.9 60.1 84% 30.13 1018.9
29 01:53 S 5 10.00 Fair CLR 66 60.1 81% 30.14 1019.0
29 00:53 E 6 10.00 Fair CLR 68 61 84 66.9 78% 30.14 1019.0
28 23:53 SE 5 10.00 Fair CLR 69.1 61 76% 30.14 1019.2
28 22:53 Calm 10.00 Fair CLR 71.1 60.1 68% 30.13 1018.9
28 21:53 Calm 10.00 Fair CLR 73.9 59 60% 30.12 1018.6
28 20:53 S 3 10.00 Fair CLR 75.9 59 56% 78 30.1 1017.8
28 19:53 S 3 10.00 Fair CLR 79 60.1 52% 80 30.09 1017.5
28 18:53 SE 6 10.00 Fair CLR 84 59 90 84 43% 84 30.09 1017.6
28 17:53 Vrbl 3 10.00 Fair CLR 87.1 59 39% 86 30.09 1017.5
28 16:53 Calm 10.00 Fair CLR 88 57 35% 87 30.09 1017.6
28 15:53 NE 9 10.00 Fair CLR 90 60.1 37% 90 30.11 1017.9
28 14:53 Vrbl 7 10.00 Partly Cloudy SCT055 87.1 61 42% 87 30.13 1018.7
28 13:53 Vrbl 5 10.00 A Few Clouds FEW060 86 61 43% 86 30.15 1019.4
28 12:53 SE 7 10.00 A Few Clouds FEW043 86 63 86 63 46% 87 30.16 1019.9
28 11:53 SE 7 10.00 Fair CLR 82.9 64 53% 84 30.18 1020.4
Date Time (cdt) Wind (mph) Vis. (mi.) Weather Sky Cond. Air Dwpt Max. Min. Relative Humidity Wind Chill (°F) Heat Index (°F) altimeter (in) sea level (mb) 1 hr 3 hr 6 hr
6 hour
Temperature (ºF) Pressure Precipitation (in)